createdAt,value
2023-03-28T00:00:15.083Z,14.16
2023-03-28T00:01:13.030Z,15.72
2023-03-28T00:02:13.003Z,11.20
2023-03-28T00:03:13.152Z,12.88
2023-03-28T00:04:13.302Z,8.56
2023-03-28T00:05:13.598Z,9.40
2023-03-28T00:06:13.696Z,18.40
2023-03-28T00:07:12.963Z,7.24
2023-03-28T00:08:16.947Z,7.92
2023-03-28T00:09:12.891Z,8.24
2023-03-28T00:10:12.780Z,9.48
2023-03-28T00:11:13.781Z,6.80
2023-03-28T00:12:13.743Z,8.32
2023-03-28T00:13:13.907Z,9.16
2023-03-28T00:14:12.937Z,13.12
2023-03-28T00:15:12.901Z,5.52
2023-03-28T00:16:13.333Z,9.24
2023-03-28T00:17:13.327Z,16.08
2023-03-28T00:18:13.341Z,6.12
2023-03-28T00:19:13.224Z,7.48
2023-03-28T00:20:13.250Z,8.36
2023-03-28T00:21:13.248Z,9.92
2023-03-28T00:22:13.345Z,11.96
2023-03-28T00:23:13.257Z,10.92
2023-03-28T00:24:13.359Z,11.12
2023-03-28T00:25:13.574Z,14.56
2023-03-28T00:26:13.708Z,8.56
2023-03-28T00:27:13.976Z,5.00
2023-03-28T00:28:13.113Z,10.44
2023-03-28T00:29:13.499Z,6.08
2023-03-28T00:30:13.436Z,10.36
2023-03-28T00:31:14.105Z,10.76
2023-03-28T00:32:13.920Z,11.84
2023-03-28T00:33:12.996Z,10.60
2023-03-28T00:34:12.943Z,11.68
2023-03-28T00:35:12.787Z,7.52
2023-03-28T00:36:13.667Z,12.20
2023-03-28T00:37:13.583Z,6.24
2023-03-28T00:38:13.857Z,9.92
2023-03-28T00:39:12.850Z,7.28
2023-03-28T00:40:13.763Z,7.84
2023-03-28T00:41:14.001Z,4.88
2023-03-28T00:42:12.894Z,5.12
2023-03-28T00:43:14.063Z,7.20
2023-03-28T00:44:12.977Z,3.72
2023-03-28T00:45:13.160Z,3.28
2023-03-28T00:46:13.239Z,4.88
2023-03-28T00:47:13.417Z,6.64
2023-03-28T00:48:14.571Z,6.80
2023-03-28T00:49:13.633Z,5.28
2023-03-28T00:50:13.784Z,5.07
2023-03-28T00:51:13.892Z,5.16
2023-03-28T00:52:13.160Z,5.96
2023-03-28T00:53:22.499Z,8.16
2023-03-28T00:54:13.953Z,6.67
2023-03-28T00:55:12.852Z,3.80
2023-03-28T00:56:13.912Z,3.84
2023-03-28T00:57:13.242Z,5.40
2023-03-28T00:58:13.590Z,5.28
2023-03-28T00:59:13.745Z,5.20
2023-03-28T01:00:13.650Z,4.64
2023-03-28T01:01:13.626Z,6.99
2023-03-28T01:02:13.711Z,8.20
2023-03-28T01:03:13.884Z,7.44
2023-03-28T01:04:12.831Z,9.60
2023-03-28T01:05:14.044Z,11.44
2023-03-28T01:06:13.017Z,10.76
2023-03-28T01:07:12.959Z,7.80
2023-03-28T01:08:13.237Z,9.24
2023-03-28T01:09:13.197Z,8.20
2023-03-28T01:10:13.170Z,7.40
2023-03-28T01:11:13.487Z,12.00
2023-03-28T01:12:13.435Z,9.08
2023-03-28T01:13:13.633Z,8.08
2023-03-28T01:14:13.639Z,8.20
2023-03-28T01:15:13.664Z,13.88
2023-03-28T01:16:14.188Z,11.68
2023-03-28T01:17:13.194Z,12.92
2023-03-28T01:18:13.198Z,13.24
2023-03-28T01:19:13.471Z,15.60
2023-03-28T01:20:13.518Z,13.12
2023-03-28T01:21:13.515Z,12.56
2023-03-28T01:22:13.548Z,12.76
2023-03-28T01:23:13.803Z,8.40
2023-03-28T01:24:14.006Z,12.40
2023-03-28T01:25:12.911Z,15.16
2023-03-28T01:26:12.812Z,15.20
2023-03-28T01:27:14.140Z,16.60
2023-03-28T01:28:13.437Z,13.64
2023-03-28T01:29:13.613Z,16.16
2023-03-28T01:30:13.731Z,12.96
2023-03-28T01:31:14.034Z,10.36
2023-03-28T01:32:12.935Z,5.92
2023-03-28T01:33:13.480Z,10.68
2023-03-28T01:34:13.415Z,14.36
2023-03-28T01:35:13.733Z,13.68
2023-03-28T01:36:13.627Z,12.52
2023-03-28T01:37:13.726Z,17.72
2023-03-28T01:38:13.797Z,14.44
2023-03-28T01:39:13.885Z,14.72
2023-03-28T01:40:12.696Z,14.60
2023-03-28T01:41:13.574Z,17.64
2023-03-28T01:42:13.537Z,20.64
2023-03-28T01:43:13.628Z,20.88
2023-03-28T01:44:13.798Z,14.64
2023-03-28T01:45:13.662Z,13.04
2023-03-28T01:46:14.120Z,14.16
2023-03-28T01:47:13.079Z,11.04
2023-03-28T01:48:13.101Z,13.40
2023-03-28T01:49:13.075Z,17.64
2023-03-28T01:50:13.159Z,15.60
2023-03-28T01:51:13.210Z,14.80
2023-03-28T01:52:13.269Z,13.40
2023-03-28T01:53:13.188Z,11.72
2023-03-28T01:54:13.405Z,14.40
2023-03-28T01:55:13.311Z,15.56
2023-03-28T01:56:13.250Z,12.60
2023-03-28T01:57:13.314Z,9.36
2023-03-28T01:58:13.443Z,15.28
2023-03-28T01:59:13.600Z,11.48
2023-03-28T02:00:13.894Z,12.04
2023-03-28T02:01:12.852Z,8.68
2023-03-28T02:02:13.014Z,10.04
2023-03-28T02:03:13.006Z,9.76
2023-03-28T02:04:20.643Z,10.44
2023-03-28T02:05:15.621Z,14.04
2023-03-28T02:06:13.983Z,14.32
2023-03-28T02:07:12.813Z,15.76
2023-03-28T02:08:13.730Z,18.44
2023-03-28T02:09:13.593Z,10.48
2023-03-28T02:10:13.497Z,4.68
2023-03-28T02:11:13.523Z,6.12
2023-03-28T02:12:14.108Z,6.68
2023-03-28T02:13:13.068Z,4.40
2023-03-28T02:14:13.155Z,6.16
2023-03-28T02:15:13.418Z,3.56
2023-03-28T02:16:13.731Z,6.40
2023-03-28T02:17:13.875Z,9.28
2023-03-28T02:18:13.741Z,9.68
2023-03-28T02:19:13.789Z,5.52
2023-03-28T02:20:13.697Z,8.24
2023-03-28T02:21:13.652Z,7.64
2023-03-28T02:22:13.564Z,8.48
2023-03-28T02:23:13.410Z,8.00
2023-03-28T02:24:13.398Z,9.00
2023-03-28T02:25:13.674Z,8.64
2023-03-28T02:26:13.621Z,7.36
2023-03-28T02:27:13.564Z,5.84
2023-03-28T02:28:13.531Z,5.56
2023-03-28T02:29:13.466Z,9.28
2023-03-28T02:30:13.442Z,8.96
2023-03-28T02:31:13.362Z,7.08
2023-03-28T02:32:13.495Z,6.72
2023-03-28T02:33:13.644Z,8.00
2023-03-28T02:34:13.470Z,8.16
2023-03-28T02:35:13.374Z,9.24
2023-03-28T02:36:13.695Z,9.60
2023-03-28T02:37:13.698Z,9.96
2023-03-28T02:38:14.198Z,8.04
2023-03-28T02:39:13.512Z,7.76
2023-03-28T02:40:13.342Z,6.20
2023-03-28T02:41:13.647Z,10.04
2023-03-28T02:42:13.775Z,12.44
2023-03-28T02:43:13.941Z,12.92
2023-03-28T02:44:12.965Z,12.00
2023-03-28T02:45:13.024Z,9.12
2023-03-28T02:46:12.973Z,8.04
2023-03-28T02:47:12.904Z,3.16
2023-03-28T02:48:13.229Z,9.24
2023-03-28T02:49:13.322Z,8.28
2023-03-28T02:50:13.253Z,7.08
2023-03-28T02:51:13.141Z,7.56
2023-03-28T02:52:13.006Z,8.56
2023-03-28T02:53:12.904Z,9.40
2023-03-28T02:54:13.986Z,11.16
2023-03-28T02:55:12.987Z,11.21
2023-03-28T02:56:13.080Z,8.28
2023-03-28T02:57:13.192Z,11.84
2023-03-28T02:58:13.267Z,5.12
2023-03-28T02:59:13.195Z,6.60
2023-03-28T03:00:13.307Z,10.20
2023-03-28T03:01:13.356Z,9.20
2023-03-28T03:02:13.337Z,6.60
2023-03-28T03:03:13.256Z,8.36
2023-03-28T03:04:13.285Z,10.80
2023-03-28T03:05:13.319Z,14.48
2023-03-28T03:06:13.362Z,8.48
2023-03-28T03:07:13.821Z,12.48
2023-03-28T03:08:13.920Z,13.32
2023-03-28T03:09:13.116Z,8.72
2023-03-28T03:10:13.135Z,9.56
2023-03-28T03:11:13.008Z,10.04
2023-03-28T03:12:13.589Z,9.52
2023-03-28T03:13:13.616Z,13.80
2023-03-28T03:14:13.563Z,16.40
2023-03-28T03:15:13.557Z,10.08
2023-03-28T03:16:13.947Z,12.24
2023-03-28T03:17:13.077Z,12.92
2023-03-28T03:18:13.070Z,9.36
2023-03-28T03:19:12.958Z,13.08
2023-03-28T03:20:13.231Z,11.32
2023-03-28T03:21:13.267Z,12.24
2023-03-28T03:22:21.085Z,12.84
2023-03-28T03:23:13.373Z,10.28
2023-03-28T03:24:13.363Z,8.04
2023-03-28T03:25:14.484Z,8.20
2023-03-28T03:26:13.781Z,8.76
2023-03-28T03:27:13.720Z,7.52
2023-03-28T03:28:13.606Z,8.60
2023-03-28T03:29:13.519Z,9.52
2023-03-28T03:30:13.498Z,12.20
2023-03-28T03:31:13.991Z,13.04
2023-03-28T03:32:12.924Z,10.56
2023-03-28T03:33:16.956Z,11.68
2023-03-28T03:34:13.652Z,16.52
2023-03-28T03:35:13.691Z,17.00
2023-03-28T03:36:13.610Z,9.60
2023-03-28T03:37:13.886Z,8.72
2023-03-28T03:38:13.119Z,6.84
2023-03-28T03:39:13.073Z,11.08
2023-03-28T03:40:12.950Z,10.52
2023-03-28T03:41:12.846Z,10.28
2023-03-28T03:42:13.680Z,8.92
2023-03-28T03:43:13.749Z,7.88
2023-03-28T03:44:14.006Z,6.68
2023-03-28T03:45:12.905Z,10.36
2023-03-28T03:46:12.931Z,11.88
2023-03-28T03:47:13.820Z,9.48
2023-03-28T03:48:14.912Z,14.56
2023-03-28T03:49:12.829Z,10.56
2023-03-28T03:50:14.611Z,13.96
2023-03-28T03:51:13.597Z,11.92
2023-03-28T03:52:13.568Z,8.96
2023-03-28T03:53:13.665Z,13.12
2023-03-28T03:54:13.561Z,10.40
2023-03-28T03:55:13.429Z,8.92
2023-03-28T03:56:13.685Z,16.44
2023-03-28T03:57:13.564Z,16.80
2023-03-28T03:58:13.752Z,11.76
2023-03-28T03:59:13.877Z,11.88
2023-03-28T04:00:13.783Z,11.68
2023-03-28T04:01:14.125Z,14.36
2023-03-28T04:02:13.032Z,13.20
2023-03-28T04:03:24.187Z,15.64
2023-03-28T04:04:13.327Z,15.68
2023-03-28T04:05:13.414Z,11.96
2023-03-28T04:06:13.314Z,15.00
2023-03-28T04:07:13.254Z,8.68
2023-03-28T04:08:13.158Z,14.12
2023-03-28T04:09:13.052Z,8.56
2023-03-28T04:10:13.069Z,10.68
2023-03-28T04:11:13.197Z,9.00
2023-03-28T04:12:13.312Z,9.80
2023-03-28T04:13:13.460Z,10.20
2023-03-28T04:14:13.392Z,11.12
2023-03-28T04:15:13.419Z,9.08
2023-03-28T04:16:13.434Z,10.52
2023-03-28T04:17:13.322Z,15.36
2023-03-28T04:18:13.155Z,6.84
2023-03-28T04:19:13.238Z,12.32
2023-03-28T04:20:13.209Z,11.56
2023-03-28T04:21:13.288Z,12.08
2023-03-28T04:22:13.227Z,11.12
2023-03-28T04:23:13.258Z,17.16
2023-03-28T04:24:13.250Z,12.08
2023-03-28T04:25:13.439Z,10.40
2023-03-28T04:26:13.539Z,10.96
2023-03-28T04:27:13.554Z,13.04
2023-03-28T04:28:13.515Z,9.64
2023-03-28T04:29:13.780Z,10.80
2023-03-28T04:30:13.826Z,9.20
2023-03-28T04:31:13.774Z,12.52
2023-03-28T04:32:13.776Z,8.44
2023-03-28T04:33:13.734Z,15.56
2023-03-28T04:34:13.619Z,8.12
2023-03-28T04:35:13.902Z,14.48
2023-03-28T04:36:12.806Z,10.08
2023-03-28T04:37:13.713Z,12.80
2023-03-28T04:38:20.848Z,10.20
2023-03-28T04:39:13.774Z,8.00
2023-03-28T04:40:13.570Z,11.24
2023-03-28T04:41:13.717Z,12.44
2023-03-28T04:42:13.643Z,10.24
2023-03-28T04:43:13.470Z,11.28
2023-03-28T04:44:13.407Z,10.52
2023-03-28T04:45:15.742Z,7.92
2023-03-28T04:47:14.030Z,17.76
2023-03-28T04:48:12.860Z,11.28
2023-03-28T04:49:13.682Z,6.56
2023-03-28T04:50:13.704Z,5.48
2023-03-28T04:51:13.787Z,11.28
2023-03-28T04:52:14.106Z,11.00
2023-03-28T04:53:13.364Z,11.32
2023-03-28T04:54:13.155Z,9.48
2023-03-28T04:55:13.137Z,11.80
2023-03-28T04:56:13.290Z,8.64
2023-03-28T04:57:13.527Z,10.64
2023-03-28T04:58:13.580Z,9.76
2023-03-28T04:59:13.656Z,9.80
2023-03-28T05:00:13.572Z,8.12
2023-03-28T05:01:13.822Z,7.56
2023-03-28T05:02:12.919Z,6.68
2023-03-28T05:03:13.287Z,7.88
2023-03-28T05:04:13.445Z,9.88
2023-03-28T05:05:13.360Z,10.12
2023-03-28T05:06:13.571Z,7.60
2023-03-28T05:07:13.452Z,10.40
2023-03-28T05:08:13.393Z,14.72
2023-03-28T05:09:13.224Z,10.88
2023-03-28T05:10:14.217Z,11.68
2023-03-28T05:11:13.327Z,8.44
2023-03-28T05:12:13.146Z,9.24
2023-03-28T05:13:13.203Z,7.08
2023-03-28T05:14:13.189Z,11.28
2023-03-28T05:15:23.082Z,6.40
2023-03-28T05:16:13.460Z,9.20
2023-03-28T05:17:13.530Z,10.60
2023-03-28T05:18:13.565Z,11.72
2023-03-28T05:19:13.819Z,15.64
2023-03-28T05:20:14.063Z,9.88
2023-03-28T05:21:12.939Z,8.68
2023-03-28T05:22:13.161Z,8.68
2023-03-28T05:23:13.599Z,14.36
2023-03-28T05:24:13.584Z,16.48
2023-03-28T05:25:13.720Z,9.92
2023-03-28T05:26:13.823Z,13.52
2023-03-28T05:27:13.767Z,8.76
2023-03-28T05:28:13.761Z,8.80
2023-03-28T05:29:14.019Z,10.12
2023-03-28T05:30:13.163Z,9.92
2023-03-28T05:31:13.089Z,8.08
2023-03-28T05:32:13.135Z,8.04
2023-03-28T05:33:18.383Z,10.28
2023-03-28T05:34:13.848Z,10.28
2023-03-28T05:35:13.960Z,11.60
2023-03-28T05:36:13.024Z,11.48
2023-03-28T05:37:13.006Z,8.44
2023-03-28T05:38:13.415Z,6.56
2023-03-28T05:39:13.363Z,8.44
2023-03-28T05:40:13.755Z,6.80
2023-03-28T05:41:14.115Z,6.44
2023-03-28T05:42:13.103Z,8.20
2023-03-28T05:43:13.410Z,6.96
2023-03-28T05:44:13.416Z,7.12
2023-03-28T05:45:13.283Z,6.48
2023-03-28T05:46:13.361Z,6.48
2023-03-28T05:47:13.560Z,6.76
2023-03-28T05:48:13.617Z,7.27
2023-03-28T05:49:13.539Z,7.78
2023-03-28T05:50:13.751Z,7.56
2023-03-28T05:51:13.688Z,7.52
2023-03-28T05:52:13.781Z,6.52
2023-03-28T05:53:13.695Z,6.04
2023-03-28T05:54:14.195Z,8.20
2023-03-28T05:55:13.120Z,11.16
2023-03-28T05:56:13.047Z,10.88
2023-03-28T05:57:13.320Z,11.16
2023-03-28T05:58:13.615Z,9.16
2023-03-28T05:59:13.438Z,8.52
2023-03-28T06:00:13.289Z,5.00
2023-03-28T06:01:13.225Z,9.40
2023-03-28T06:02:13.182Z,8.52
2023-03-28T06:03:16.788Z,8.92
2023-03-28T06:04:13.539Z,12.08
2023-03-28T06:05:13.660Z,11.56
2023-03-28T06:06:13.756Z,9.96
2023-03-28T06:07:13.786Z,9.88
2023-03-28T06:08:13.774Z,12.76
2023-03-28T06:09:13.698Z,8.20
2023-03-28T06:10:13.902Z,11.56
2023-03-28T06:11:12.730Z,10.04
2023-03-28T06:12:14.018Z,12.40
2023-03-28T06:13:13.222Z,10.52
2023-03-28T06:14:13.100Z,13.04
2023-03-28T06:15:12.935Z,10.88
2023-03-28T06:16:13.078Z,9.92
2023-03-28T06:17:13.127Z,7.64
2023-03-28T06:18:13.423Z,4.76
2023-03-28T06:19:18.285Z,4.96
2023-03-28T06:20:14.140Z,10.60
2023-03-28T06:21:13.775Z,9.28
2023-03-28T06:22:13.959Z,8.64
2023-03-28T06:23:12.827Z,9.84
2023-03-28T06:24:13.656Z,6.40
2023-03-28T06:25:13.814Z,11.72
2023-03-28T06:26:13.828Z,9.40
2023-03-28T06:27:13.787Z,7.96
2023-03-28T06:28:14.017Z,7.52
2023-03-28T06:29:13.149Z,6.20
2023-03-28T06:30:13.125Z,10.20
2023-03-28T06:31:13.141Z,7.08
2023-03-28T06:32:13.288Z,7.80
2023-03-28T06:33:14.469Z,5.92
2023-03-28T06:34:13.777Z,5.24
2023-03-28T06:35:13.846Z,7.28
2023-03-28T06:36:13.731Z,4.80
2023-03-28T06:37:13.981Z,6.36
2023-03-28T06:38:12.981Z,3.36
2023-03-28T06:39:12.905Z,6.04
2023-03-28T06:40:12.763Z,8.56
2023-03-28T06:41:14.069Z,8.12
2023-03-28T06:42:13.042Z,6.68
2023-03-28T06:43:13.061Z,10.00
2023-03-28T06:44:13.346Z,6.08
2023-03-28T06:45:13.460Z,10.32
2023-03-28T06:46:13.842Z,6.44
2023-03-28T06:47:17.749Z,7.44
2023-03-28T06:48:14.124Z,6.28
2023-03-28T06:49:13.368Z,9.24
2023-03-28T06:50:13.676Z,8.76
2023-03-28T06:51:13.770Z,9.12
2023-03-28T06:52:13.683Z,8.92
2023-03-28T06:53:15.294Z,7.28
2023-03-28T06:54:13.423Z,6.64
2023-03-28T06:55:13.401Z,13.32
2023-03-28T06:56:13.507Z,10.68
2023-03-28T06:57:13.742Z,9.00
2023-03-28T06:58:13.594Z,19.80
2023-03-28T06:59:13.708Z,12.04
2023-03-28T07:00:13.967Z,8.04
2023-03-28T07:01:12.988Z,12.56
2023-03-28T07:02:13.003Z,8.32
2023-03-28T07:03:13.058Z,8.12
2023-03-28T07:04:13.171Z,8.24
2023-03-28T07:05:13.211Z,7.28
2023-03-28T07:06:13.185Z,20.48
2023-03-28T07:07:13.219Z,10.68
2023-03-28T07:08:13.195Z,14.04
2023-03-28T07:09:13.300Z,15.72
2023-03-28T07:10:13.259Z,15.76
2023-03-28T07:11:13.452Z,8.64
2023-03-28T07:12:13.329Z,18.64
2023-03-28T07:13:13.173Z,19.76
2023-03-28T07:14:12.992Z,13.76
2023-03-28T07:15:12.918Z,10.92
2023-03-28T07:16:12.919Z,14.72
2023-03-28T07:17:12.958Z,16.24
2023-03-28T07:18:13.192Z,13.76
2023-03-28T07:19:13.221Z,18.40
2023-03-28T07:20:13.230Z,13.36
2023-03-28T07:21:13.250Z,17.32
2023-03-28T07:22:13.651Z,18.48
2023-03-28T07:23:13.538Z,11.36
2023-03-28T07:24:13.452Z,9.88
2023-03-28T07:25:13.589Z,11.04
2023-03-28T07:26:13.578Z,12.80
2023-03-28T07:27:15.981Z,12.36
2023-03-28T07:28:14.236Z,9.84
2023-03-28T07:29:13.246Z,7.04
2023-03-28T07:30:13.311Z,7.24
2023-03-28T07:31:13.493Z,11.84
2023-03-28T07:32:13.390Z,8.04
2023-03-28T07:33:18.921Z,3.28
2023-03-28T07:34:13.505Z,3.12
2023-03-28T07:35:13.660Z,7.34
2023-03-28T07:36:13.751Z,5.76
2023-03-28T07:37:14.107Z,3.56
2023-03-28T07:38:13.127Z,3.76
2023-03-28T07:39:13.073Z,5.52
2023-03-28T07:40:13.217Z,5.44
2023-03-28T07:41:13.447Z,9.56
2023-03-28T07:42:13.361Z,16.48
2023-03-28T07:43:13.561Z,13.80
2023-03-28T07:44:13.437Z,12.24
2023-03-28T07:45:13.477Z,5.16
2023-03-28T07:46:13.768Z,9.36
2023-03-28T07:47:14.013Z,17.16
2023-03-28T07:48:12.974Z,16.28
2023-03-28T07:49:12.901Z,16.08
2023-03-28T07:50:12.783Z,12.08
2023-03-28T07:51:13.606Z,10.48
2023-03-28T07:52:13.543Z,11.00
2023-03-28T07:53:13.469Z,10.84
2023-03-28T07:54:13.512Z,10.68
2023-03-28T07:55:13.535Z,10.16
2023-03-28T07:56:13.472Z,10.28
2023-03-28T07:57:13.614Z,7.60
2023-03-28T07:58:14.990Z,9.76
2023-03-28T07:59:12.875Z,9.44
2023-03-28T08:00:13.911Z,13.52
2023-03-28T08:01:13.078Z,11.76
2023-03-28T08:02:13.199Z,14.32
2023-03-28T08:03:13.270Z,12.00
2023-03-28T08:04:13.585Z,10.08
2023-03-28T08:05:13.955Z,16.04
2023-03-28T08:06:28.554Z,17.04
2023-03-28T08:07:13.594Z,8.68
2023-03-28T08:08:13.493Z,15.20
2023-03-28T08:09:13.606Z,19.48
2023-03-28T08:10:13.498Z,13.92
2023-03-28T08:11:13.514Z,15.00
2023-03-28T08:12:13.687Z,14.48
2023-03-28T08:13:13.860Z,14.12
2023-03-28T08:14:13.977Z,7.40
2023-03-28T08:15:12.958Z,9.16
2023-03-28T08:16:12.904Z,15.44
2023-03-28T08:17:13.313Z,14.20
2023-03-28T08:18:13.429Z,21.36
2023-03-28T08:19:13.338Z,16.48
2023-03-28T08:20:13.251Z,15.16
2023-03-28T08:21:13.272Z,11.56
2023-03-28T08:22:13.214Z,16.28
2023-03-28T08:23:13.390Z,12.88
2023-03-28T08:24:19.484Z,10.20
2023-03-28T08:25:13.768Z,8.96
2023-03-28T08:26:13.710Z,20.72
2023-03-28T08:27:13.657Z,19.52
2023-03-28T08:28:13.579Z,12.72
2023-03-28T08:29:13.569Z,27.52
2023-03-28T08:30:13.598Z,13.68
2023-03-28T08:31:13.848Z,17.64
2023-03-28T08:32:13.061Z,7.52
2023-03-28T08:33:13.185Z,14.68
2023-03-28T08:34:13.332Z,19.04
2023-03-28T08:35:13.404Z,33.16
2023-03-28T08:36:13.342Z,27.24
2023-03-28T08:37:13.424Z,16.72
2023-03-28T08:38:13.881Z,19.00
2023-03-28T08:39:13.960Z,23.16
2023-03-28T08:40:12.858Z,20.44
2023-03-28T08:41:13.851Z,16.64
2023-03-28T08:42:13.834Z,20.68
2023-03-28T08:43:13.729Z,9.76
2023-03-28T08:44:13.785Z,11.32
2023-03-28T08:45:13.689Z,20.32
2023-03-28T08:46:13.655Z,24.96
2023-03-28T08:47:14.187Z,12.24
2023-03-28T08:48:13.307Z,17.20
2023-03-28T08:49:13.463Z,18.12
2023-03-28T08:50:13.630Z,14.40
2023-03-28T08:51:14.056Z,10.56
2023-03-28T08:52:12.983Z,14.32
2023-03-28T08:53:13.153Z,4.84
2023-03-28T08:54:13.073Z,15.96
2023-03-28T08:55:13.029Z,11.12
2023-03-28T08:56:13.009Z,15.24
2023-03-28T08:57:12.939Z,18.52
2023-03-28T08:58:12.769Z,12.28
2023-03-28T08:59:14.129Z,21.44
2023-03-28T09:00:12.953Z,16.20
2023-03-28T09:01:12.820Z,15.52
2023-03-28T09:02:13.846Z,6.80
2023-03-28T09:03:14.235Z,7.28
2023-03-28T09:04:13.326Z,11.16
2023-03-28T09:05:23.066Z,15.04
2023-03-28T09:06:13.120Z,13.72
2023-03-28T09:07:13.328Z,10.72
2023-03-28T09:08:13.304Z,10.16
2023-03-28T09:09:13.400Z,16.60
2023-03-28T09:10:13.372Z,15.88
2023-03-28T09:11:13.288Z,4.88
2023-03-28T09:12:13.268Z,6.28
2023-03-28T09:13:13.176Z,8.04
2023-03-28T09:14:13.320Z,6.04
2023-03-28T09:15:13.238Z,10.28
2023-03-28T09:16:13.302Z,8.96
2023-03-28T09:17:13.455Z,4.60
2023-03-28T09:18:13.746Z,5.68
2023-03-28T09:19:14.426Z,5.96
2023-03-28T09:20:13.347Z,7.72
2023-03-28T09:21:13.471Z,6.88
2023-03-28T09:22:16.042Z,6.64
2023-03-28T09:23:13.501Z,7.76
2023-03-28T09:24:13.416Z,7.88
2023-03-28T09:25:13.759Z,6.99
2023-03-28T09:26:13.764Z,4.36
2023-03-28T09:27:13.867Z,4.36
2023-03-28T09:28:13.774Z,5.16
2023-03-28T09:29:14.082Z,5.44
2023-03-28T09:30:13.175Z,4.44
2023-03-28T09:31:13.613Z,6.68
2023-03-28T09:32:13.830Z,9.24
2023-03-28T09:33:13.839Z,9.16
2023-03-28T09:34:13.883Z,8.64
2023-03-28T09:35:12.792Z,7.10
2023-03-28T09:36:13.883Z,6.96
2023-03-28T09:37:13.239Z,5.64
2023-03-28T09:38:13.164Z,5.56
2023-03-28T09:39:13.224Z,3.72
2023-03-28T09:40:13.277Z,4.44
2023-03-28T09:41:13.270Z,2.44
2023-03-28T09:42:13.196Z,3.80
2023-03-28T09:43:13.141Z,4.00
2023-03-28T09:44:13.090Z,7.44
2023-03-28T09:45:12.947Z,6.40
2023-03-28T09:46:12.842Z,7.08
2023-03-28T09:47:13.758Z,7.60
2023-03-28T09:48:14.150Z,10.20
2023-03-28T09:49:13.317Z,9.12
2023-03-28T09:50:13.521Z,5.88
2023-03-28T09:51:13.543Z,7.24
2023-03-28T09:52:13.440Z,7.16
2023-03-28T09:53:13.328Z,4.72
2023-03-28T09:54:13.235Z,3.36
2023-03-28T09:55:13.716Z,3.72
2023-03-28T09:56:13.760Z,7.56
2023-03-28T09:57:13.910Z,4.64
2023-03-28T09:58:13.126Z,3.00
2023-03-28T09:59:13.105Z,3.68
2023-03-28T10:00:12.932Z,1.28
2023-03-28T10:01:12.898Z,4.72
2023-03-28T10:02:12.969Z,4.48
2023-03-28T10:03:13.251Z,5.04
2023-03-28T10:04:13.364Z,6.52
2023-03-28T10:05:13.550Z,4.56
2023-03-28T10:06:13.460Z,3.00
2023-03-28T10:07:13.433Z,4.40
2023-03-28T10:08:13.470Z,4.72
2023-03-28T10:09:13.745Z,4.08
2023-03-28T10:10:13.797Z,3.04
2023-03-28T10:11:13.710Z,3.60
2023-03-28T10:12:13.514Z,5.08
2023-03-28T10:13:14.037Z,6.24
2023-03-28T10:14:12.952Z,7.36
2023-03-28T10:15:12.785Z,8.16
2023-03-28T10:16:13.751Z,4.48
2023-03-28T10:17:13.962Z,6.48
2023-03-28T10:18:13.231Z,2.48
2023-03-28T10:19:13.247Z,2.16
2023-03-28T10:20:13.292Z,4.96
2023-03-28T10:21:13.343Z,4.52
2023-03-28T10:22:13.648Z,7.36
2023-03-28T10:23:13.688Z,4.32
2023-03-28T10:24:13.721Z,4.96
2023-03-28T10:25:13.655Z,7.92
2023-03-28T10:26:13.781Z,4.72
2023-03-28T10:27:13.814Z,8.64
2023-03-28T10:28:14.155Z,7.68
2023-03-28T10:29:13.193Z,6.84
2023-03-28T10:30:13.352Z,6.08
2023-03-28T10:31:13.567Z,6.88
2023-03-28T10:32:13.604Z,12.64
2023-03-28T10:33:13.665Z,6.56
2023-03-28T10:34:13.709Z,5.52
2023-03-28T10:35:13.771Z,4.08
2023-03-28T10:36:13.941Z,9.76
2023-03-28T10:37:12.798Z,9.20
2023-03-28T10:38:13.805Z,4.44
2023-03-28T10:39:13.766Z,5.72
2023-03-28T10:40:13.895Z,4.60
2023-03-28T10:41:12.794Z,5.68
2023-03-28T10:42:13.773Z,3.72
2023-03-28T10:43:13.817Z,6.16
2023-03-28T10:44:14.866Z,5.76
2023-03-28T10:45:13.784Z,6.76
2023-03-28T10:46:14.069Z,8.24
2023-03-28T10:47:14.286Z,7.16
2023-03-28T10:48:13.206Z,6.36
2023-03-28T10:49:13.199Z,5.92
2023-03-28T10:50:13.250Z,8.28
2023-03-28T10:51:13.212Z,9.48
2023-03-28T10:52:13.096Z,6.80
2023-03-28T10:53:13.315Z,5.80
2023-03-28T10:54:13.272Z,5.36
2023-03-28T10:55:13.209Z,3.56
2023-03-28T10:56:13.297Z,4.80
2023-03-28T10:57:13.863Z,5.80
2023-03-28T10:58:12.995Z,7.84
2023-03-28T10:59:13.012Z,6.36
2023-03-28T11:00:13.043Z,4.92
2023-03-28T11:01:13.243Z,4.12
2023-03-28T11:02:13.107Z,5.96
2023-03-28T11:03:13.052Z,9.28
2023-03-28T11:04:13.084Z,5.60
2023-03-28T11:05:13.334Z,7.20
2023-03-28T11:06:13.240Z,4.60
2023-03-28T11:07:13.909Z,6.64
2023-03-28T11:08:13.304Z,10.48
2023-03-28T11:09:13.212Z,8.28
2023-03-28T11:10:13.105Z,6.76
2023-03-28T11:11:13.320Z,8.84
2023-03-28T11:12:23.012Z,19.28
2023-03-28T11:13:13.084Z,38.08
2023-03-28T11:14:13.021Z,33.32
2023-03-28T11:15:13.146Z,21.76
2023-03-28T11:16:13.246Z,23.08
2023-03-28T11:17:13.380Z,18.24
2023-03-28T11:18:13.368Z,31.96
2023-03-28T11:19:13.143Z,22.96
2023-03-28T11:20:13.321Z,26.32
2023-03-28T11:21:14.902Z,14.92
2023-03-28T11:22:12.761Z,12.04
2023-03-28T11:23:13.909Z,12.56
2023-03-28T11:24:12.950Z,12.24
2023-03-28T11:25:12.856Z,18.40
2023-03-28T11:26:13.844Z,13.80
2023-03-28T11:27:16.394Z,8.00
2023-03-28T11:28:15.010Z,27.20
2023-03-28T11:29:13.233Z,22.56
2023-03-28T11:30:13.222Z,5.52
2023-03-28T11:31:13.161Z,6.08
2023-03-28T11:32:13.056Z,8.28
2023-03-28T11:33:12.926Z,12.04
2023-03-28T11:34:13.118Z,11.68
2023-03-28T11:35:13.265Z,11.84
2023-03-28T11:36:13.495Z,16.72
2023-03-28T11:37:13.459Z,22.00
2023-03-28T11:38:13.502Z,7.40
2023-03-28T11:39:13.390Z,23.44
2023-03-28T11:40:13.558Z,14.08
2023-03-28T11:41:13.504Z,27.04
2023-03-28T11:42:13.416Z,17.68
2023-03-28T11:43:13.330Z,16.76
2023-03-28T11:44:13.338Z,20.20
2023-03-28T11:45:13.381Z,15.12
2023-03-28T11:46:13.606Z,24.72
2023-03-28T11:47:13.718Z,24.68
2023-03-28T11:48:13.747Z,19.48
2023-03-28T11:49:13.671Z,16.80
2023-03-28T11:50:13.620Z,11.52
2023-03-28T11:51:13.559Z,8.00
2023-03-28T11:52:13.566Z,15.20
2023-03-28T11:53:13.455Z,29.88
2023-03-28T11:54:13.383Z,31.36
2023-03-28T11:55:15.035Z,24.90
2023-03-28T11:56:13.571Z,23.16
2023-03-28T11:57:13.751Z,20.28
2023-03-28T11:58:13.823Z,48.80
2023-03-28T11:59:13.649Z,39.40
2023-03-28T12:00:31.860Z,25.36
2023-03-28T12:01:13.340Z,14.28
2023-03-28T12:02:13.806Z,31.04
2023-03-28T12:03:14.073Z,21.24
2023-03-28T12:04:13.363Z,18.04
2023-03-28T12:05:13.639Z,31.80
2023-03-28T12:06:13.930Z,47.00
2023-03-28T12:07:12.894Z,31.00
2023-03-28T12:08:12.943Z,4.08
2023-03-28T12:09:12.848Z,2.84
2023-03-28T12:10:13.769Z,16.52
2023-03-28T12:11:13.829Z,34.08
2023-03-28T12:12:14.163Z,31.48
2023-03-28T12:13:13.444Z,38.88
2023-03-28T12:14:13.620Z,50.92
2023-03-28T12:15:13.777Z,8.76
2023-03-28T12:16:13.010Z,5.16
2023-03-28T12:17:13.807Z,27.88
2023-03-28T12:18:13.829Z,44.04
2023-03-28T12:19:13.936Z,39.28
2023-03-28T12:20:12.753Z,34.48
2023-03-28T12:21:13.637Z,43.56
2023-03-28T12:22:13.686Z,34.24
2023-03-28T12:23:13.619Z,29.48
2023-03-28T12:24:13.484Z,38.24
2023-03-28T12:25:13.597Z,24.96
2023-03-28T12:26:13.496Z,0.56
2023-03-28T12:27:13.714Z,6.80
2023-03-28T12:28:14.036Z,13.68
2023-03-28T12:29:13.032Z,27.00
2023-03-28T12:30:13.369Z,18.84
2023-03-28T12:31:13.483Z,22.56
2023-03-28T12:32:13.381Z,45.00
2023-03-28T12:33:13.771Z,33.52
2023-03-28T12:34:13.638Z,19.68
2023-03-28T12:35:13.578Z,17.36
2023-03-28T12:36:13.497Z,35.60
2023-03-28T12:37:13.582Z,33.20
2023-03-28T12:38:13.907Z,41.48
2023-03-28T12:39:13.161Z,33.00
2023-03-28T12:40:13.357Z,16.28
2023-03-28T12:41:13.425Z,40.72
2023-03-28T12:42:13.901Z,23.32
2023-03-28T12:43:12.794Z,31.76
2023-03-28T12:44:14.155Z,37.32
2023-03-28T12:45:13.292Z,36.84
2023-03-28T12:46:13.301Z,31.96
2023-03-28T12:47:13.204Z,34.80
2023-03-28T12:48:13.131Z,26.80
2023-03-28T12:49:12.948Z,23.12
2023-03-28T12:50:13.431Z,2.44
2023-03-28T12:51:13.598Z,8.44
2023-03-28T12:52:13.925Z,24.52
2023-03-28T12:53:12.784Z,21.56
2023-03-28T12:54:14.271Z,12.20
2023-03-28T12:55:13.248Z,28.04
2023-03-28T12:56:13.224Z,32.00
2023-03-28T12:57:17.058Z,26.36
2023-03-28T12:58:13.275Z,18.72
2023-03-28T12:59:13.240Z,8.16
2023-03-28T13:00:13.133Z,23.52
2023-03-28T13:01:13.054Z,8.16
2023-03-28T13:02:13.373Z,10.80
2023-03-28T13:03:13.733Z,3.32
2023-03-28T13:04:13.663Z,23.84
2023-03-28T13:05:15.464Z,27.88
2023-03-28T13:06:13.386Z,19.28